Time;durP1;ratioP1;P1;durP2;ratioP2;P2;SDS_P1;SDS_P2;PMS_P1;PMS_P2;Temp;Humidity;BMP_temperature;BMP_pressure;BME280_temperature;BME280_humidity;BME280_pressure;Samples;Min_cycle;Max_cycle;Signal;HPM_P1;HPM_P2
2022/04/19 00:01:40;;;;;;;2.10;2.00;;;6.00;68.00;;;;;;5264343;28;20896;-43
2022/04/19 00:04:11;;;;;;;4.30;1.70;;;5.90;70.00;;;;;;5243802;28;20189;-43
2022/04/19 00:06:44;;;;;;;3.20;1.83;;;5.90;71.40;;;;;;5263591;28;20442;-44
2022/04/19 00:09:17;;;;;;;1.93;1.70;;;5.80;73.00;;;;;;5260824;28;20471;-43
2022/04/19 00:11:47;;;;;;;2.13;1.97;;;5.80;75.20;;;;;;5265898;28;20459;-43
2022/04/19 00:14:18;;;;;;;4.37;1.80;;;5.70;77.20;;;;;;5264133;28;20451;-43
2022/04/19 00:16:48;;;;;;;1.40;1.30;;;5.70;78.50;;;;;;5265048;28;20212;-44
2022/04/19 00:19:19;;;;;;;2.47;1.83;;;5.80;79.40;;;;;;5264020;28;20185;-44
2022/04/19 00:21:49;;;;;;;3.93;2.17;;;5.80;80.40;;;;;;5257600;28;20204;-48
2022/04/19 00:24:20;;;;;;;3.10;1.60;;;5.80;80.80;;;;;;5258877;28;20185;-43
2022/04/19 00:26:51;;;;;;;1.97;1.87;;;5.80;82.20;;;;;;5258686;28;20696;-44
2022/04/19 00:29:21;;;;;;;1.27;1.20;;;5.70;83.80;;;;;;5259294;28;20278;-43
2022/04/19 00:31:52;;;;;;;7.40;1.63;;;5.80;85.30;;;;;;5254927;28;20215;-44
2022/04/19 00:34:22;;;;;;;2.57;1.30;;;5.70;86.70;;;;;;5263124;28;20271;-43
2022/04/19 00:36:53;;;;;;;2.10;1.93;;;5.70;88.20;;;;;;5259371;28;20212;-43
2022/04/19 00:39:23;;;;;;;1.70;1.60;;;5.70;89.10;;;;;;5265204;28;20567;-43
2022/04/19 00:41:55;;;;;;;2.60;1.70;;;5.70;90.10;;;;;;5264554;28;20257;-43
2022/04/19 00:44:26;;;;;;;1.30;1.20;;;5.70;90.60;;;;;;5265610;28;20614;-44
2022/04/19 00:46:57;;;;;;;1.80;1.10;;;5.70;90.80;;;;;;5263408;28;20433;-44
2022/04/19 00:49:28;;;;;;;1.70;1.60;;;5.70;91.80;;;;;;5262274;28;20241;-43
2022/04/19 00:51:58;;;;;;;1.80;1.70;;;5.70;91.80;;;;;;5261783;28;20287;-47
2022/04/19 00:54:30;;;;;;;1.50;1.50;;;5.70;92.30;;;;;;5265129;28;20658;-43
2022/04/19 00:57:01;;;;;;;2.23;2.00;;;5.70;93.10;;;;;;5242683;28;20613;-44
2022/04/19 00:59:33;;;;;;;1.70;1.60;;;5.60;93.10;;;;;;5255155;28;20445;-44
2022/04/19 01:02:04;;;;;;;1.53;1.53;;;5.60;93.90;;;;;;5270536;28;20513;-44
2022/04/19 01:04:34;;;;;;;2.10;1.50;;;5.50;94.90;;;;;;5267719;28;20529;-43
2022/04/19 01:07:05;;;;;;;3.87;1.43;;;5.50;95.30;;;;;;5264410;28;20186;-44
2022/04/19 01:09:35;;;;;;;1.63;1.60;;;5.40;95.50;;;;;;5263979;28;20284;-45
2022/04/19 01:14:57;;;;;;;1.70;1.60;;;5.30;97.50;;;;;;5261488;28;20209;-43
2022/04/19 01:17:27;;;;;;;1.43;1.33;;;5.30;98.20;;;;;;5262059;28;20463;-44
2022/04/19 01:19:58;;;;;;;1.93;1.83;;;5.20;99.40;;;;;;5264224;28;20439;-44
2022/04/19 01:22:39;;;;;;;2.50;1.70;;;5.20;99.90;;;;;;5260434;28;20299;-43
2022/04/19 01:25:11;;;;;;;1.10;1.10;;;5.20;99.90;;;;;;5264684;28;20194;-43
2022/04/19 01:27:41;;;;;;;3.13;2.00;;;5.20;99.90;;;;;;5266084;28;20457;-43
2022/04/19 01:30:12;;;;;;;2.30;2.00;;;5.10;99.90;;;;;;5265756;28;20469;-45
2022/04/19 01:32:42;;;;;;;1.80;1.70;;;5.10;99.90;;;;;;5251335;28;20217;-45
2022/04/19 01:35:14;;;;;;;2.00;1.90;;;5.00;99.90;;;;;;5262204;28;20285;-43
2022/04/19 01:37:49;;;;;;;1.63;1.50;;;5.00;99.90;;;;;;5265853;28;20205;-43
2022/04/19 01:40:20;;;;;;;5.53;2.03;;;5.00;99.90;;;;;;5260860;28;20439;-45
2022/04/19 01:43:09;;;;;;;1.60;1.60;;;4.90;99.90;;;;;;5266919;22;20505;-44
2022/04/19 01:45:40;;;;;;;3.40;2.07;;;4.90;99.90;;;;;;5236727;28;20171;-43
2022/04/19 01:48:11;;;;;;;1.73;1.63;;;4.90;99.90;;;;;;5238305;28;20433;-45
2022/04/19 01:50:41;;;;;;;4.00;2.27;;;4.90;99.90;;;;;;5243216;28;20428;-45
2022/04/19 01:53:13;;;;;;;1.60;1.50;;;5.00;99.90;;;;;;5265700;28;20200;-46
2022/04/19 01:55:44;;;;;;;1.17;1.17;;;4.90;99.90;;;;;;5263757;28;20240;-44
2022/04/19 01:58:17;;;;;;;2.77;1.60;;;4.90;99.90;;;;;;5270384;28;20516;-44
2022/04/19 02:00:47;;;;;;;1.87;1.77;;;4.90;99.90;;;;;;5261144;28;20170;-43
2022/04/19 02:03:18;;;;;;;1.80;1.40;;;4.90;99.90;;;;;;5268277;28;20794;-43
2022/04/19 02:05:48;;;;;;;1.80;1.70;;;4.80;99.90;;;;;;5259484;28;20199;-44
2022/04/19 02:08:19;;;;;;;4.60;1.70;;;4.80;99.90;;;;;;5262841;28;20220;-44
2022/04/19 02:10:49;;;;;;;5.13;1.83;;;4.80;99.90;;;;;;5265313;28;20228;-44
2022/04/19 02:13:20;;;;;;;6.60;1.60;;;4.80;99.90;;;;;;5262891;28;20654;-42
2022/04/19 02:15:51;;;;;;;1.60;1.60;;;4.80;99.90;;;;;;5258239;28;20183;-45
2022/04/19 02:18:22;;;;;;;1.67;1.57;;;4.80;99.90;;;;;;5258656;28;20249;-43
2022/04/19 02:20:53;;;;;;;2.33;1.53;;;4.70;99.90;;;;;;5264661;28;20510;-45
2022/04/19 02:23:25;;;;;;;2.50;2.20;;;4.70;99.90;;;;;;5258468;28;20285;-44
2022/04/19 02:25:55;;;;;;;4.33;2.13;;;4.70;99.90;;;;;;5266135;28;20275;-46
2022/04/19 02:28:26;;;;;;;2.20;1.80;;;4.80;99.90;;;;;;5244695;28;20458;-44
2022/04/19 02:30:57;;;;;;;2.97;1.80;;;4.70;99.90;;;;;;5259963;28;20178;-45
2022/04/19 02:33:28;;;;;;;2.97;1.90;;;4.70;99.90;;;;;;5261555;28;20246;-45
2022/04/19 02:35:59;;;;;;;1.63;1.53;;;4.70;99.90;;;;;;5261489;28;20424;-45
2022/04/19 02:38:30;;;;;;;2.03;1.80;;;4.60;99.90;;;;;;5259037;28;20996;-44
2022/04/19 02:41:00;;;;;;;1.70;1.60;;;4.60;99.90;;;;;;5252988;28;20182;-44
2022/04/19 02:43:31;;;;;;;1.90;1.73;;;4.60;99.90;;;;;;5262944;28;20217;-45
2022/04/19 02:46:02;;;;;;;1.50;1.50;;;4.50;99.90;;;;;;5260983;28;20170;-43
2022/04/19 02:48:32;;;;;;;1.90;1.80;;;4.50;99.90;;;;;;5262837;28;20438;-44
2022/04/19 02:51:03;;;;;;;4.10;2.10;;;4.40;99.90;;;;;;5242710;28;20183;-43
2022/04/19 02:53:34;;;;;;;4.83;1.90;;;4.40;99.90;;;;;;5266114;28;20555;-44
2022/04/19 02:56:04;;;;;;;1.90;1.80;;;4.40;99.90;;;;;;5274683;28;20431;-44
2022/04/19 02:58:35;;;;;;;2.33;2.20;;;4.40;99.90;;;;;;5263442;28;20320;-45
2022/04/19 03:01:06;;;;;;;2.00;1.87;;;4.30;99.90;;;;;;5264204;28;20174;-44
2022/04/19 03:03:36;;;;;;;2.57;1.83;;;4.20;99.90;;;;;;5263856;28;20272;-45
2022/04/19 03:06:07;;;;;;;1.90;1.80;;;4.20;99.90;;;;;;5259801;28;20167;-44
2022/04/19 03:08:37;;;;;;;1.73;1.73;;;4.20;99.90;;;;;;5266601;28;20255;-45
2022/04/19 03:11:08;;;;;;;2.00;1.90;;;4.20;99.90;;;;;;5272343;28;20182;-44
2022/04/19 03:13:38;;;;;;;5.00;2.03;;;4.10;99.90;;;;;;5266331;28;20198;-44
2022/04/19 03:16:13;;;;;;;1.80;1.67;;;4.00;99.90;;;;;;5264216;28;20189;-43
2022/04/19 03:18:44;;;;;;;2.13;2.00;;;4.00;99.90;;;;;;5269137;28;20173;-42
2022/04/19 03:21:14;;;;;;;2.00;1.90;;;4.10;99.90;;;;;;5272017;28;20436;-43
2022/04/19 03:29:23;;;;;;;5.03;2.07;;;4.00;99.90;;;;;;5262989;28;20454;-44
2022/04/19 03:31:54;;;;;;;2.50;2.30;;;3.90;99.90;;;;;;5240406;28;20468;-44
2022/04/19 03:34:25;;;;;;;5.13;2.03;;;3.90;99.90;;;;;;5263101;28;20642;-44
2022/04/19 03:36:55;;;;;;;3.70;1.77;;;3.80;99.90;;;;;;5265056;28;20597;-45
2022/04/19 03:39:26;;;;;;;2.20;2.10;;;3.80;99.90;;;;;;5262949;28;20178;-44
2022/04/19 03:41:58;;;;;;;1.60;1.50;;;3.70;99.90;;;;;;5267480;28;20202;-43
2022/04/19 03:44:31;;;;;;;3.90;2.03;;;3.70;99.90;;;;;;5261904;28;20200;-44
2022/04/19 03:47:07;;;;;;;1.70;1.60;;;3.70;99.90;;;;;;5265483;28;20581;-43
2022/04/19 03:49:44;;;;;;;2.00;1.90;;;3.70;99.90;;;;;;5263326;28;20953;-44
2022/04/19 03:52:14;;;;;;;2.57;1.60;;;3.70;99.90;;;;;;5264630;28;20466;-44
2022/04/19 03:54:45;;;;;;;3.07;1.90;;;3.70;99.90;;;;;;5263063;28;20459;-43
2022/04/19 03:57:17;;;;;;;2.07;1.97;;;3.60;99.90;;;;;;5266996;28;20194;-44
2022/04/19 03:59:48;;;;;;;1.30;1.17;;;3.60;99.90;;;;;;5262609;28;20184;-43
2022/04/19 04:02:18;;;;;;;2.53;1.87;;;3.60;99.90;;;;;;5270197;28;20452;-45
2022/04/19 04:04:49;;;;;;;2.07;2.00;;;3.60;99.90;;;;;;5268303;28;20177;-43
2022/04/19 04:07:19;;;;;;;2.20;1.77;;;3.60;99.90;;;;;;5269926;28;20188;-43
2022/04/19 04:09:51;;;;;;;5.80;2.37;;;3.50;99.90;;;;;;5270170;28;20189;-43
2022/04/19 04:12:21;;;;;;;1.87;1.80;;;3.50;99.90;;;;;;5268219;28;20681;-45
2022/04/19 04:14:52;;;;;;;2.67;2.00;;;3.60;99.90;;;;;;5269823;28;20531;-45
2022/04/19 04:17:22;;;;;;;5.53;2.20;;;3.60;99.90;;;;;;5273731;28;20467;-44
2022/04/19 04:19:53;;;;;;;2.43;2.27;;;3.60;99.90;;;;;;5268518;28;20198;-44
2022/04/19 04:22:24;;;;;;;3.33;2.40;;;3.60;99.90;;;;;;5268355;28;20205;-44
2022/04/19 04:24:54;;;;;;;2.00;1.90;;;3.50;99.90;;;;;;5266751;28;20666;-44
2022/04/19 04:27:25;;;;;;;3.43;1.90;;;3.60;99.90;;;;;;5275362;28;20532;-43
2022/04/19 04:29:55;;;;;;;2.37;1.83;;;3.60;99.90;;;;;;5272163;28;20309;-44
2022/04/19 04:32:26;;;;;;;3.53;1.90;;;3.60;99.90;;;;;;5267969;28;20206;-44
2022/04/19 04:34:57;;;;;;;4.83;3.03;;;3.60;99.90;;;;;;5272666;28;20185;-44
2022/04/19 04:37:27;;;;;;;3.57;2.13;;;3.60;99.90;;;;;;5266183;28;20217;-43
2022/04/19 04:39:57;;;;;;;2.60;2.37;;;3.70;99.90;;;;;;5270760;28;20257;-44
2022/04/19 04:42:28;;;;;;;2.27;2.07;;;3.70;99.90;;;;;;5276183;28;20217;-44
2022/04/19 04:44:59;;;;;;;2.27;2.07;;;3.70;99.90;;;;;;5270013;28;20193;-44
2022/04/19 04:50:19;;;;;;;4.10;1.90;;;3.70;99.90;;;;;;5277192;28;20190;-43
2022/04/19 04:52:52;;;;;;;3.33;2.03;;;4.00;99.90;;;;;;5251918;28;20452;-43
2022/04/19 04:55:24;;;;;;;3.67;2.53;;;4.60;99.90;;;;;;5273606;28;20438;-43
2022/04/19 04:57:58;;;;;;;3.80;2.80;;;5.50;99.90;;;;;;5267887;28;20460;-45
2022/04/19 05:00:29;;;;;;;2.97;2.60;;;6.10;99.90;;;;;;5266766;28;20433;-43
2022/04/19 05:02:59;;;;;;;3.40;2.90;;;6.40;99.90;;;;;;5256207;28;20466;-44
2022/04/19 05:05:30;;;;;;;4.40;3.20;;;6.40;99.90;;;;;;5263912;28;20497;-44
2022/04/19 05:08:03;;;;;;;8.07;3.20;;;6.20;99.90;;;;;;5265998;28;20174;-43
2022/04/19 05:10:33;;;;;;;3.43;2.97;;;6.50;99.90;;;;;;5264170;28;20309;-43
2022/04/19 05:13:04;;;;;;;5.40;3.50;;;7.00;99.20;;;;;;5265922;28;20451;-44
2022/04/19 05:15:35;;;;;;;8.23;2.70;;;7.40;98.30;;;;;;5265813;28;20265;-43
2022/04/19 05:18:05;;;;;;;4.70;2.70;;;8.30;92.30;;;;;;5271169;28;20211;-44
2022/04/19 05:20:36;;;;;;;2.77;2.53;;;8.80;85.40;;;;;;5266462;28;20183;-44
2022/04/19 05:23:07;;;;;;;2.80;2.60;;;8.80;81.10;;;;;;5266056;28;20213;-46
2022/04/19 05:25:37;;;;;;;3.17;2.60;;;9.10;76.80;;;;;;5265579;28;20188;-44
2022/04/19 05:28:08;;;;;;;2.93;2.60;;;9.60;71.60;;;;;;5262677;28;20186;-44
2022/04/19 05:30:39;;;;;;;7.30;2.57;;;10.60;63.30;;;;;;5267060;28;20622;-44
2022/04/19 05:33:11;;;;;;;3.80;2.50;;;11.60;56.40;;;;;;5251392;28;20301;-45
2022/04/19 05:35:41;;;;;;;3.47;3.27;;;12.40;52.80;;;;;;5271080;28;20178;-45
2022/04/19 05:38:12;;;;;;;3.40;2.70;;;12.90;49.30;;;;;;5261961;28;20989;-47
2022/04/19 05:40:42;;;;;;;4.93;2.93;;;13.10;47.90;;;;;;5263675;28;20185;-45
2022/04/19 05:43:13;;;;;;;2.90;2.70;;;13.20;47.10;;;;;;5269793;28;20219;-44
2022/04/19 05:45:43;;;;;;;5.33;3.00;;;13.20;46.80;;;;;;5264664;28;20187;-44
2022/04/19 05:48:14;;;;;;;2.77;2.57;;;13.10;45.90;;;;;;5269386;28;20208;-45
2022/04/19 05:50:44;;;;;;;5.13;3.07;;;13.20;45.30;;;;;;5267947;28;20189;-45
2022/04/19 05:53:15;;;;;;;3.60;3.27;;;13.40;45.40;;;;;;5262760;28;20256;-45
2022/04/19 05:55:46;;;;;;;6.50;3.20;;;13.20;44.90;;;;;;5260435;28;20197;-44
2022/04/19 05:58:16;;;;;;;5.83;3.13;;;13.60;44.40;;;;;;5267826;28;20201;-44
2022/04/19 06:00:47;;;;;;;6.83;3.40;;;14.00;43.70;;;;;;5263958;28;20194;-44
2022/04/19 06:06:06;;;;;;;7.87;3.60;;;14.40;42.30;;;;;;5261055;28;20657;-44
2022/04/19 06:08:37;;;;;;;2.47;2.33;;;14.50;41.60;;;;;;5263046;28;20447;-45
2022/04/19 06:11:11;;;;;;;4.93;3.30;;;15.00;41.60;;;;;;5261378;28;20314;-44
2022/04/19 06:13:41;;;;;;;6.33;2.97;;;15.80;39.50;;;;;;5259658;28;20278;-45
2022/04/19 06:16:12;;;;;;;3.37;3.10;;;16.30;38.20;;;;;;5267171;28;20439;-43
2022/04/19 06:18:43;;;;;;;5.80;3.50;;;16.30;37.40;;;;;;5267541;28;20178;-44
2022/04/19 06:21:13;;;;;;;3.23;2.93;;;16.00;37.30;;;;;;5271863;28;20560;-45
2022/04/19 06:23:44;;;;;;;5.80;3.07;;;15.50;38.00;;;;;;5258015;28;20213;-46
2022/04/19 06:26:14;;;;;;;2.93;2.73;;;15.50;38.20;;;;;;5261171;28;20182;-45
2022/04/19 06:28:45;;;;;;;4.23;3.43;;;16.10;37.40;;;;;;5264352;28;20590;-46
2022/04/19 06:31:15;;;;;;;5.80;3.87;;;16.40;36.30;;;;;;5263505;28;20556;-44
2022/04/19 06:33:46;;;;;;;9.10;3.50;;;15.80;36.50;;;;;;5260765;28;20209;-44
2022/04/19 06:36:16;;;;;;;3.23;2.87;;;16.00;36.60;;;;;;5269769;28;20169;-44
2022/04/19 06:38:47;;;;;;;4.17;3.47;;;15.90;35.90;;;;;;5256980;28;20235;-44
2022/04/19 06:41:17;;;;;;;5.37;3.10;;;15.70;36.80;;;;;;5263561;28;20204;-46
2022/04/19 06:43:48;;;;;;;3.70;3.40;;;16.50;36.10;;;;;;5262022;28;20204;-45
2022/04/19 06:46:18;;;;;;;3.73;3.23;;;17.40;34.40;;;;;;5263477;28;20193;-43
2022/04/19 06:48:50;;;;;;;5.40;3.10;;;17.70;33.80;;;;;;5262664;28;20236;-44
2022/04/19 06:51:21;;;;;;;4.90;3.70;;;17.60;33.30;;;;;;5263964;28;20186;-44
2022/04/19 06:53:52;;;;;;;6.13;3.90;;;17.90;33.20;;;;;;5271822;28;20435;-44
2022/04/19 06:56:22;;;;;;;5.10;3.13;;;18.00;32.20;;;;;;5271090;28;20463;-44
2022/04/19 06:58:54;;;;;;;3.70;3.07;;;17.90;32.70;;;;;;5272073;28;20173;-44
2022/04/19 07:01:26;;;;;;;5.30;3.47;;;18.50;32.80;;;;;;5264603;28;20190;-45
2022/04/19 07:03:56;;;;;;;3.90;3.60;;;18.80;30.10;;;;;;5265085;28;20441;-45
2022/04/19 07:06:27;;;;;;;9.10;3.60;;;18.00;31.00;;;;;;5262950;28;20454;-44
2022/04/19 07:08:57;;;;;;;7.07;3.63;;;18.20;31.80;;;;;;5267266;28;20190;-45
2022/04/19 07:11:28;;;;;;;5.73;3.47;;;19.50;31.00;;;;;;5264537;28;20215;-44
2022/04/19 07:13:58;;;;;;;7.20;3.77;;;20.40;29.40;;;;;;5262620;28;20613;-45
2022/04/19 07:16:29;;;;;;;3.70;3.50;;;21.30;28.00;;;;;;5266844;28;20263;-45
2022/04/19 07:19:00;;;;;;;4.70;3.00;;;21.20;27.90;;;;;;5257963;28;20174;-44
2022/04/19 07:27:08;;;;;;;3.93;3.53;;;20.70;27.00;;;;;;5267584;28;20416;-44
2022/04/19 07:29:39;;;;;;;3.97;3.57;;;19.60;27.70;;;;;;5265802;28;20440;-44
2022/04/19 07:32:09;;;;;;;2.83;2.53;;;19.50;28.10;;;;;;5262295;28;20596;-44
2022/04/19 07:34:40;;;;;;;3.43;3.07;;;19.50;27.80;;;;;;5261134;28;20189;-45
2022/04/19 07:37:11;;;;;;;7.83;3.70;;;19.90;28.00;;;;;;5265632;28;20217;-45
2022/04/19 07:39:42;;;;;;;3.60;3.40;;;21.20;27.20;;;;;;5264566;28;20215;-44
2022/04/19 07:42:12;;;;;;;2.83;2.63;;;22.70;25.50;;;;;;5270857;23;20635;-45
2022/04/19 07:44:44;;;;;;;3.60;3.27;;;23.20;24.20;;;;;;5186125;28;20184;-44
2022/04/19 07:47:15;;;;;;;3.30;3.07;;;22.60;24.30;;;;;;5201724;28;20176;-44
2022/04/19 07:49:47;;;;;;;2.90;2.70;;;21.60;24.40;;;;;;5204311;28;20522;-45
2022/04/19 07:52:17;;;;;;;2.50;2.30;;;20.20;25.20;;;;;;5191978;28;20230;-43
2022/04/19 07:54:48;;;;;;;2.50;2.30;;;19.40;26.20;;;;;;5199333;28;20447;-45
2022/04/19 07:57:20;;;;;;;2.80;2.70;;;19.30;27.00;;;;;;5204851;28;20213;-45
2022/04/19 07:59:54;;;;;;;2.37;2.17;;;19.10;27.60;;;;;;5206523;28;20267;-45
2022/04/19 08:02:24;;;;;;;2.50;2.00;;;19.90;26.90;;;;;;5206118;28;20456;-47
2022/04/19 08:04:55;;;;;;;2.20;2.10;;;20.70;25.90;;;;;;5204496;28;20517;-48
2022/04/19 08:07:25;;;;;;;2.43;2.23;;;21.40;25.70;;;;;;5219324;28;20210;-44
2022/04/19 08:10:00;;;;;;;2.00;1.90;;;21.80;25.30;;;;;;5206189;28;20187;-46
2022/04/19 08:12:31;;;;;;;2.10;2.00;;;22.40;25.00;;;;;;5202172;28;20202;-44
2022/04/19 08:15:02;;;;;;;2.10;2.00;;;22.90;24.40;;;;;;5205604;28;20477;-46
2022/04/19 08:17:33;;;;;;;2.40;2.20;;;22.80;24.00;;;;;;5200342;28;20562;-45
2022/04/19 08:20:05;;;;;;;5.90;2.43;;;22.20;24.30;;;;;;5200904;28;20178;-46
2022/04/19 08:22:36;;;;;;;3.97;2.10;;;21.90;24.60;;;;;;5200530;28;20548;-45
2022/04/19 08:25:07;;;;;;;2.10;1.90;;;20.30;25.60;;;;;;5198838;28;20837;-44
2022/04/19 08:27:42;;;;;;;2.30;2.13;;;19.10;26.40;;;;;;5198576;28;20179;-43
2022/04/19 08:30:15;;;;;;;3.80;1.77;;;17.70;28.00;;;;;;5203362;28;20421;-47
2022/04/19 08:32:46;;;;;;;3.53;2.00;;;16.50;29.50;;;;;;5199552;28;20501;-46
2022/04/19 08:35:17;;;;;;;5.10;2.33;;;15.60;30.50;;;;;;5197150;28;20509;-44
2022/04/19 08:37:48;;;;;;;2.43;1.50;;;15.20;31.70;;;;;;5200495;28;20480;-46
2022/04/19 08:40:19;;;;;;;2.13;1.67;;;14.70;31.60;;;;;;5201060;28;20427;-44
2022/04/19 08:42:50;;;;;;;2.40;2.20;;;14.50;32.20;;;;;;5202938;28;20208;-45
2022/04/19 08:45:21;;;;;;;2.20;2.00;;;13.60;32.80;;;;;;5202664;28;20446;-44
2022/04/19 08:47:51;;;;;;;3.30;1.93;;;13.00;34.30;;;;;;5197344;28;20192;-46
2022/04/19 08:50:22;;;;;;;2.13;2.00;;;12.80;35.20;;;;;;5200911;28;20265;-45
2022/04/19 08:58:31;;;;;;;1.63;1.53;;;12.10;35.30;;;;;;5198574;28;20546;-44
2022/04/19 09:01:02;;;;;;;1.53;1.43;;;11.70;36.40;;;;;;5197810;28;20522;-46
2022/04/19 09:03:33;;;;;;;2.57;1.50;;;11.50;37.30;;;;;;5191824;28;20214;-45
2022/04/19 09:06:04;;;;;;;1.27;1.27;;;11.40;37.70;;;;;;5198109;28;20643;-45
2022/04/19 09:08:35;;;;;;;1.23;1.13;;;11.40;37.50;;;;;;5194292;28;20453;-46
2022/04/19 09:11:08;;;;;;;2.40;1.90;;;11.50;38.20;;;;;;5195074;28;20184;-47
2022/04/19 09:13:38;;;;;;;1.83;1.70;;;11.50;38.10;;;;;;5198293;28;20207;-46
2022/04/19 09:16:09;;;;;;;6.13;1.23;;;11.40;37.80;;;;;;5204365;28;20572;-45
2022/04/19 09:18:40;;;;;;;1.30;1.20;;;11.50;38.30;;;;;;5207439;28;20214;-43
2022/04/19 09:21:10;;;;;;;1.57;1.47;;;11.50;38.30;;;;;;5207075;28;20183;-44
2022/04/19 09:23:52;;;;;;;1.33;1.23;;;11.50;38.60;;;;;;5207510;28;20527;-44
2022/04/19 09:26:39;;;;;;;1.27;1.27;;;11.60;38.90;;;;;;5206281;28;20190;-44
2022/04/19 09:29:27;;;;;;;1.20;1.10;;;11.50;38.90;;;;;;5188791;28;21049;-45
2022/04/19 09:31:58;;;;;;;1.03;1.03;;;11.70;38.90;;;;;;5191218;28;20524;-46
2022/04/19 09:34:33;;;;;;;1.53;1.17;;;11.80;38.50;;;;;;5172010;28;20444;-45
2022/04/19 09:37:11;;;;;;;2.77;1.20;;;11.80;38.40;;;;;;5216068;28;20655;-45
2022/04/19 09:39:44;;;;;;;1.20;1.20;;;12.00;38.20;;;;;;5186959;28;20476;-45
2022/04/19 09:42:14;;;;;;;1.07;1.07;;;12.10;37.70;;;;;;5202198;28;20502;-45
2022/04/19 09:44:51;;;;;;;1.10;1.10;;;12.20;37.20;;;;;;5201598;28;20470;-45
2022/04/19 09:47:22;;;;;;;2.10;1.20;;;12.10;37.10;;;;;;5199121;28;20179;-45
2022/04/19 09:49:54;;;;;;;1.70;1.20;;;12.30;37.20;;;;;;5215926;28;20736;-44
2022/04/19 09:52:24;;;;;;;1.87;1.67;;;12.40;37.10;;;;;;5211914;28;20485;-46
2022/04/19 09:55:07;;;;;;;3.03;1.33;;;12.50;36.80;;;;;;5202854;28;20434;-44
2022/04/19 09:57:39;;;;;;;1.17;0.90;;;12.50;36.90;;;;;;5205323;28;20234;-49
2022/04/19 10:00:14;;;;;;;7.20;1.40;;;12.50;36.80;;;;;;5199727;28;20517;-44
2022/04/19 10:08:26;;;;;;;1.13;1.13;;;13.50;36.10;;;;;;5196153;28;20519;-46
2022/04/19 10:10:58;;;;;;;8.03;1.60;;;13.50;35.80;;;;;;5199408;28;20440;-45
2022/04/19 10:13:29;;;;;;;1.40;1.17;;;13.30;36.30;;;;;;5206305;28;20462;-46
2022/04/19 10:16:00;;;;;;;1.10;1.10;;;13.20;36.50;;;;;;5200048;28;22122;-45
2022/04/19 10:18:31;;;;;;;3.03;1.50;;;13.30;36.70;;;;;;5211322;28;20557;-47
2022/04/19 10:21:05;;;;;;;1.30;1.30;;;13.40;36.50;;;;;;5206091;28;20522;-44
2022/04/19 10:23:38;;;;;;;1.53;1.43;;;13.50;36.30;;;;;;5194848;28;20195;-47
2022/04/19 10:26:21;;;;;;;2.13;1.30;;;13.40;36.10;;;;;;5208324;28;20434;-46
2022/04/19 10:28:58;;;;;;;2.10;1.30;;;13.30;36.10;;;;;;5215562;28;20481;-45
2022/04/19 10:31:31;;;;;;;1.40;1.40;;;13.20;36.10;;;;;;5217294;28;20842;-47
2022/04/19 10:34:03;;;;;;;1.63;1.03;;;13.30;36.60;;;;;;5202569;28;20455;-44
2022/04/19 10:36:35;;;;;;;1.07;1.07;;;13.50;36.60;;;;;;5204973;28;20465;-44
2022/04/19 10:39:15;;;;;;;5.50;1.30;;;13.50;36.40;;;;;;5196299;28;20422;-47
2022/04/19 10:42:02;;;;;;;1.13;1.13;;;13.70;36.20;;;;;;5198863;28;20870;-43
2022/04/19 10:44:39;;;;;;;1.27;1.27;;;13.70;35.90;;;;;;5205049;28;20505;-44
2022/04/19 10:47:11;;;;;;;1.07;1.07;;;13.70;35.80;;;;;;5204015;28;20446;-45
2022/04/19 10:50:04;;;;;;;1.40;1.30;;;13.60;35.70;;;;;;5206452;28;20970;-44
2022/04/19 10:52:42;;;;;;;1.80;1.37;;;13.60;35.50;;;;;;5195770;28;20489;-46
2022/04/19 10:55:22;;;;;;;1.93;1.20;;;13.80;35.20;;;;;;5201367;28;20438;-44
2022/04/19 10:58:21;;;;;;;1.00;1.00;;;14.00;35.30;;;;;;5196709;28;20541;-46
2022/04/19 11:00:56;;;;;;;2.53;1.30;;;14.30;35.20;;;;;;5195952;28;20492;-44
2022/04/19 11:03:29;;;;;;;3.27;1.27;;;14.50;34.30;;;;;;5201547;28;20481;-45
2022/04/19 11:06:02;;;;;;;1.00;0.70;;;14.40;33.90;;;;;;5199367;28;20429;-43
2022/04/19 11:08:37;;;;;;;1.70;1.60;;;14.40;33.70;;;;;;5208720;28;20447;-45
2022/04/19 11:11:08;;;;;;;1.73;1.23;;;14.40;33.80;;;;;;5197740;28;20576;-44
2022/04/19 11:13:40;;;;;;;1.07;1.07;;;14.20;33.60;;;;;;5211043;28;21581;-45
2022/04/19 11:16:13;;;;;;;1.00;1.00;;;13.80;34.20;;;;;;5200290;28;20208;-45
2022/04/19 11:18:44;;;;;;;1.20;1.10;;;13.80;34.60;;;;;;5204564;28;20438;-44
2022/04/19 11:21:15;;;;;;;2.67;1.73;;;13.90;34.60;;;;;;5198274;28;20445;-44
2022/04/19 11:23:49;;;;;;;5.30;1.73;;;14.20;35.10;;;;;;5201181;28;20271;-45
2022/04/19 11:26:34;;;;;;;0.97;0.97;;;14.30;35.10;;;;;;5190445;28;20506;-46
2022/04/19 11:29:10;;;;;;;1.43;1.40;;;14.60;34.80;;;;;;5194797;28;20442;-45
2022/04/19 11:32:05;;;;;;;1.73;1.63;;;14.70;34.20;;;;;;5199726;28;20803;-45
2022/04/19 11:34:36;;;;;;;1.63;1.27;;;14.60;34.50;;;;;;5199371;28;20541;-46
2022/04/19 11:37:07;;;;;;;1.83;1.27;;;14.30;34.70;;;;;;5199874;28;20925;-44
2022/04/19 11:48:36;;;;;;;2.87;1.40;;;13.40;36.00;;;;;;5202056;28;20433;-44
2022/04/19 11:51:09;;;;;;;1.77;1.67;;;13.20;36.50;;;;;;5212040;28;20438;-45
2022/04/19 11:53:41;;;;;;;1.70;1.40;;;13.30;37.00;;;;;;5211236;28;20462;-44
2022/04/19 11:56:12;;;;;;;4.43;1.57;;;13.50;37.10;;;;;;5197964;28;20439;-44
2022/04/19 11:58:48;;;;;;;1.60;1.50;;;13.80;36.60;;;;;;5200339;28;20628;-44
2022/04/19 12:01:20;;;;;;;2.63;2.03;;;13.60;36.60;;;;;;5197980;28;20464;-44
2022/04/19 12:03:51;;;;;;;1.93;1.83;;;13.60;37.10;;;;;;5202082;28;20442;-45
2022/04/19 12:06:24;;;;;;;1.70;1.60;;;13.50;37.10;;;;;;5193817;28;20454;-45
2022/04/19 12:08:54;;;;;;;1.73;1.70;;;13.70;37.40;;;;;;5202585;28;20961;-44
2022/04/19 12:11:27;;;;;;;2.00;2.00;;;13.60;37.30;;;;;;5204210;28;20497;-45
2022/04/19 12:13:58;;;;;;;1.80;1.60;;;13.50;37.60;;;;;;5203628;28;20302;-44
2022/04/19 12:16:37;;;;;;;1.80;1.70;;;13.60;37.70;;;;;;5203762;28;20431;-44
2022/04/19 12:19:09;;;;;;;1.80;1.70;;;13.70;37.50;;;;;;5203226;28;20286;-44
2022/04/19 12:21:45;;;;;;;5.90;1.53;;;13.70;37.50;;;;;;5197781;28;20437;-44
2022/04/19 12:24:19;;;;;;;2.60;1.43;;;13.90;37.50;;;;;;5198429;28;20901;-44
2022/04/19 12:26:51;;;;;;;1.83;1.73;;;14.10;37.30;;;;;;5212341;28;20455;-45
2022/04/19 12:29:21;;;;;;;3.23;1.97;;;14.10;37.10;;;;;;5196591;28;20603;-43
2022/04/19 12:31:57;;;;;;;4.33;1.90;;;13.90;37.80;;;;;;5196504;28;20450;-44
2022/04/19 12:34:33;;;;;;;1.57;1.47;;;13.60;37.60;;;;;;5190151;28;20210;-43
2022/04/19 12:37:14;;;;;;;1.67;1.57;;;13.50;38.30;;;;;;5187771;28;20462;-44
2022/04/19 12:39:59;;;;;;;3.60;1.97;;;13.60;38.40;;;;;;5217529;28;20438;-44
2022/04/19 12:42:46;;;;;;;4.43;2.37;;;13.60;38.30;;;;;;5204073;28;20531;-44
2022/04/19 12:45:18;;;;;;;3.10;1.67;;;13.50;38.50;;;;;;5203323;28;20586;-43
2022/04/19 12:47:50;;;;;;;1.70;1.60;;;13.70;38.50;;;;;;5207082;28;20446;-47
2022/04/19 12:50:20;;;;;;;4.93;1.77;;;13.90;38.30;;;;;;5200735;28;20781;-45
2022/04/19 12:52:51;;;;;;;1.70;1.60;;;14.10;38.20;;;;;;5203402;28;20470;-46
2022/04/19 12:58:49;;;;;;;1.10;1.10;;;14.30;37.40;;;;;;5201888;28;20255;-45
2022/04/19 13:01:20;;;;;;;1.30;1.20;;;14.40;37.30;;;;;;5206507;28;20425;-45
2022/04/19 13:03:51;;;;;;;0.93;0.93;;;14.10;36.90;;;;;;5198968;28;20466;-45
2022/04/19 13:12:24;;;;;;;1.30;1.20;;;14.30;37.70;;;;;;5174993;28;20459;-46
2022/04/19 13:14:57;;;;;;;1.60;1.50;;;13.70;38.00;;;;;;5202484;28;20478;-44
2022/04/19 13:17:31;;;;;;;1.30;1.30;;;13.50;38.40;;;;;;5204907;28;20498;-44
2022/04/19 13:20:03;;;;;;;10.00;2.07;;;13.40;38.20;;;;;;5198576;28;20445;-45
2022/04/19 13:22:36;;;;;;;1.57;1.10;;;13.50;38.30;;;;;;5202366;28;20589;-44
2022/04/19 13:25:08;;;;;;;1.40;1.30;;;13.60;38.20;;;;;;5205018;28;20423;-44
2022/04/19 13:27:38;;;;;;;1.20;1.20;;;13.60;38.60;;;;;;5202543;28;20854;-44
2022/04/19 13:30:10;;;;;;;3.80;1.07;;;13.70;38.80;;;;;;5202417;28;20439;-44
2022/04/19 13:32:41;;;;;;;2.23;1.07;;;13.90;38.50;;;;;;5202327;28;20207;-45
2022/04/19 13:35:11;;;;;;;2.00;1.10;;;14.00;37.50;;;;;;5203113;28;20488;-45
2022/04/19 13:40:31;;;;;;;1.43;1.30;;;13.90;37.80;;;;;;5188369;28;20582;-45
2022/04/19 13:43:01;;;;;;;1.40;0.93;;;13.80;37.80;;;;;;5206819;23;20501;-51
2022/04/19 13:45:33;;;;;;;0.90;0.90;;;13.90;38.10;;;;;;5207438;28;20255;-52
2022/04/19 13:48:04;;;;;;;0.73;0.73;;;13.90;38.20;;;;;;5216220;28;20175;-50
2022/04/19 13:50:35;;;;;;;1.90;0.93;;;13.90;37.00;;;;;;5217034;28;20805;-49
2022/04/19 13:53:05;;;;;;;4.00;1.10;;;13.80;37.10;;;;;;5211558;28;20202;-49
2022/04/19 13:55:36;;;;;;;1.10;1.10;;;14.00;37.50;;;;;;5243056;28;20204;-50
2022/04/19 13:58:10;;;;;;;0.90;0.80;;;14.40;36.70;;;;;;5243834;28;20652;-52
2022/04/19 14:00:40;;;;;;;5.47;1.30;;;14.60;36.60;;;;;;5239296;28;20262;-52
2022/04/19 14:03:11;;;;;;;1.67;1.33;;;14.70;37.00;;;;;;5222119;28;20544;-51
2022/04/19 14:05:41;;;;;;;1.27;1.17;;;14.60;37.30;;;;;;5239677;28;20185;-50
2022/04/19 14:08:12;;;;;;;1.53;1.43;;;14.40;37.10;;;;;;5240032;28;20307;-50